Flight Track Log - Related Links

Times and Time Zones

All times are in EDT time to prevent confusion due to time zone crossing. See the FSR411 flight status page for this flight to view local times or setup timezone preferences in your user account.

Time Position Orientation Groundspeed Altitude Reporting Facility
EDT Latitude Longitude Course Direction KTS MPH feet Rate Location/Type
Sat 06:20:53 PM 42.3953 -82.9983 140° Southeast 194 223 1,600  Level Cleveland Center
Sat 06:22:06 PM 42.3361 -82.9314 140° Southeast 271 312 3,100 672 Climbing Cleveland Center
Sat 06:23:07 PM 42.2744 -82.8869 152° Southeast 260 299 3,100  Level Cleveland Center
Sat 06:24:08 PM 42.2092 -82.9183 200° South 254 292 3,100  Level Cleveland Center
Sat 06:25:09 PM 42.1397 -82.9522 200° South 248 285 3,100  Level Cleveland Center
Sat 06:26:10 PM 42.0744 -82.9861 201° Southwest 260 299 3,100  Level Cleveland Center
Sat 06:27:11 PM 42.0092 -83.0172 200° South 248 285 3,100  Level Cleveland Center
Sat 06:28:12 PM 41.9494 -83.0736 215° Southwest 249 287 3,100  Level Cleveland Center
Sat 06:29:13 PM 41.8919 -83.1383 220° Southwest 275 316 3,100  Level Cleveland Center
Sat 06:30:14 PM 41.8261 -83.1831 207° Southwest 247 284 3,100  Level Cleveland Center
Sat 06:31:14 PM 41.7558 -83.1636 168° South 260 299 3,100 414 Level Cleveland Center
Sat 06:32:10 PM 41.6894 -83.1469 169° South 269 310 3,900 2,121 Climbing Cleveland Center
Sat 06:33:10 PM 41.6164 -83.1467 180° South 283 326 7,200 2,083 Climbing Cleveland Center
Sat 06:34:11 PM 41.5689 -83.2256 231° Southwest 285 328 8,100 1,125 Climbing Cleveland Center
Sat 06:35:18 PM 41.5389 -83.3408 251° West 283 326 9,600 1,266 Climbing Cleveland Center
Sat 06:36:19 PM 41.5092 -83.4475 250° West 343 395 10,800 2,262 Climbing Cleveland Center
Sat 06:37:20 PM 41.4814 -83.5600 252° West 324 373 14,200 3,492 Climbing Cleveland Center
Sat 06:38:21 PM 41.4428 -83.6831 247° West 377 434 17,900 4,279 Climbing Cleveland Center
Sat 06:39:22 PM 41.4014 -83.8194 248° West 370 426 22,900 3,844 Climbing Cleveland Center
Sat 06:40:29 PM 41.3622 -83.9503 248° West 354 407 26,100 2,361 Climbing Cleveland Center
Sat 06:41:24 PM 41.3319 -84.0539 249° West 361 415 27,700 1,018 Climbing Cleveland Center
Sat 06:42:21 PM 41.2928 -84.1808 248° West 389 448 28,000 151 Climbing Chicago Center
Sat 06:43:23 PM 41.2519 -84.3097 247° West 380 437 28,000  Level Chicago Center
Sat 06:44:25 PM 41.2125 -84.4403 248° West 378 435 28,000  Level Chicago Center
Sat 06:45:27 PM 41.1647 -84.5939 248° West 376 433 28,000  Level Chicago Center
Sat 06:46:29 PM 41.1231 -84.7283 248° West 390 449 28,000  Level Chicago Center
Sat 06:47:31 PM 41.0811 -84.8608 247° West 390 449 28,000  Level Chicago Center
Sat 06:48:33 PM 41.0406 -84.9931 248° West 387 445 28,000  Level Chicago Center
Sat 06:49:35 PM 40.9989 -85.1231 247° West 383 441 28,000  Level Chicago Center
Sat 06:50:37 PM 40.9583 -85.2556 248° West 386 444 28,000  Level Chicago Center
Sat 06:51:39 PM 40.9194 -85.3906 249° West 391 450 28,000  Level Chicago Center
Sat 06:52:41 PM 40.8806 -85.5264 249° West 393 452 28,000  Level Chicago Center
Sat 06:53:43 PM 40.8325 -85.6908 249° West 399 459 28,000  Level Chicago Center
Sat 06:54:45 PM 40.7925 -85.8278 249° West 401 461 28,000  Level Chicago Center
Sat 06:55:47 PM 40.7511 -85.9661 248° West 404 465 28,000  Level Chicago Center
Sat 06:56:49 PM 40.7108 -86.1036 249° West 404 465 28,000  Level Chicago Center
Sat 06:57:51 PM 40.6692 -86.2472 249° West 406 467 28,000  Level Chicago Center
Sat 06:58:52 PM 40.6281 -86.3839 248° West 406 467 28,000  Level Chicago Center
Sat 06:59:57 PM 40.5789 -86.5469 248° West 404 465 28,000 -283 Level Chicago Center
Sat 07:00:59 PM 40.5389 -86.6789 248° West 396 456 27,400 -1,463 Descending Chicago Center
Sat 07:02:00 PM 40.4997 -86.8078 248° West 387 445 25,000 -2,049 Descending Chicago Center
Sat 07:03:02 PM 40.4611 -86.9358 248° West 383 441 23,200 -2,129 Descending Chicago Center
Sat 07:04:04 PM 40.4239 -87.0561 248° West 367 422 20,600 -2,661 Descending Chicago Center
Sat 07:05:06 PM 40.3792 -87.2008 248° West 362 417 17,700 -2,585 Descending Chicago Center
Sat 07:06:07 PM 40.3422 -87.3189 248° West 354 407 15,300 -2,195 Descending Chicago Center
Sat 07:07:09 PM 40.3069 -87.4333 248° West 344 396 13,200 -1,935 Descending Chicago Center
Sat 07:08:11 PM 40.2744 -87.5381 248° West 333 383 11,300 -1,659 Descending Chicago Center
Sat 07:09:12 PM 40.2344 -87.6633 247° West 318 366 9,800 -1,561 Descending Chicago Center
Sat 07:10:14 PM 40.2089 -87.7500 249° West 274 315 8,100 -1,935 Descending Chicago Center
Sat 07:11:16 PM 40.1806 -87.8433 248° West 264 304 5,800 -1,887 Descending Chicago Center
Sat 07:12:18 PM 40.1528 -87.9244 246° West 262 302 4,200 -1,065 Descending Chicago Center
Sat 07:13:20 PM 40.1264 -88.0028 246° West 260 299 3,600 -581 Descending Chicago Center
Sat 07:15:00 PM 40.0542 -88.1874 246° West  Level FlightAware Approximate
Sat 07:22:00 PM 40.0333 -88.2667 252° West  Level FlightAware Approximate
Sat 07:23:00 PM 40.0388 -88.2778 252° West  Level Estimated
Sat 07:24:00 PM 40.0388 -88.2778 252° West  Level Estimated

Login

Don't have an account? Register now (free) for customized features, flight alerts, and more!